Time;durP1;ratioP1;P1;durP2;ratioP2;P2;SDS_P1;SDS_P2;PMS_P1;PMS_P2;Temp;Humidity;BMP_temperature;BMP_pressure;BME280_temperature;BME280_humidity;BME280_pressure;Samples;Min_cycle;Max_cycle;Signal;HPM_P1;HPM_P2
2021/12/16 00:09:17;;;;;;;35.93;19.10;;;6.00;99.90;;;;;;5069727;28;20257;-74
2021/12/16 00:33:47;;;;;;;43.67;22.50;;;6.70;99.90;;;;;;5057068;28;20556;-73
2021/12/16 00:36:14;;;;;;;41.60;21.70;;;6.50;99.90;;;;;;5054327;28;20203;-73
2021/12/16 00:38:45;;;;;;;41.33;21.67;;;6.50;99.90;;;;;;5058181;28;20194;-74
2021/12/16 00:41:12;;;;;;;41.40;21.50;;;6.40;99.90;;;;;;5073975;28;20209;-74
2021/12/16 00:43:46;;;;;;;44.70;21.43;;;6.40;99.90;;;;;;5067966;28;20194;-74
2021/12/16 00:46:30;;;;;;;37.47;20.67;;;6.30;99.90;;;;;;5073835;28;20569;-73
2021/12/16 00:49:17;;;;;;;38.20;21.07;;;6.10;99.90;;;;;;5066645;28;20199;-73
2021/12/16 00:54:29;;;;;;;37.63;21.17;;;5.90;99.90;;;;;;5060828;28;20209;-74
2021/12/16 00:57:01;;;;;;;41.43;21.70;;;5.80;99.90;;;;;;5053496;28;20579;-74
2021/12/16 00:59:33;;;;;;;36.57;20.63;;;5.80;99.90;;;;;;5061661;28;20453;-74
2021/12/16 01:02:13;;;;;;;39.50;20.83;;;5.70;99.90;;;;;;5071402;28;20198;-74
2021/12/16 01:35:25;;;;;;;38.03;20.37;;;5.40;99.90;;;;;;5056211;28;20284;-73
2021/12/16 01:46:34;;;;;;;38.40;19.20;;;5.40;99.90;;;;;;5032623;28;20281;-73
2021/12/16 01:49:30;;;;;;;44.10;23.20;;;5.20;99.90;;;;;;5040708;28;20214;-73
2021/12/16 01:52:11;;;;;;;43.83;21.20;;;5.30;99.90;;;;;;5069413;28;20314;-73
2021/12/16 01:54:50;;;;;;;42.47;22.43;;;5.20;99.90;;;;;;5060029;28;20213;-73
2021/12/16 01:57:25;;;;;;;43.77;21.20;;;5.40;99.90;;;;;;5072251;28;20228;-73
2021/12/16 02:00:00;;;;;;;43.07;22.60;;;5.40;99.90;;;;;;5039605;28;20204;-74
2021/12/16 02:02:37;;;;;;;42.87;21.87;;;5.50;99.90;;;;;;5070157;28;20198;-73
2021/12/16 02:08:12;;;;;;;44.57;22.80;;;5.70;99.90;;;;;;5035164;28;20203;-74
2021/12/16 02:10:45;;;;;;;52.13;24.10;;;5.60;99.90;;;;;;5060927;28;20202;-73
2021/12/16 02:27:30;;;;;;;46.57;23.07;;;5.70;99.90;;;;;;5052471;28;20571;-72
2021/12/16 02:30:32;;;;;;;45.17;22.27;;;5.60;99.90;;;;;;5053281;28;20603;-71
2021/12/16 02:33:07;;;;;;;48.67;24.60;;;5.70;99.90;;;;;;5051859;28;20203;-71
2021/12/16 02:35:41;;;;;;;46.23;23.37;;;5.90;99.90;;;;;;5053260;28;20283;-71
2021/12/16 02:38:12;;;;;;;46.47;23.20;;;5.80;99.90;;;;;;5058016;28;20202;-72
2021/12/16 02:40:39;;;;;;;44.23;23.67;;;5.90;99.90;;;;;;5063444;28;20280;-71
2021/12/16 02:43:22;;;;;;;45.83;23.50;;;6.00;99.90;;;;;;5066226;28;20223;-71
2021/12/16 02:48:36;;;;;;;46.13;24.33;;;6.00;99.90;;;;;;5065643;28;20212;-71
2021/12/16 02:51:06;;;;;;;48.43;25.87;;;6.10;99.90;;;;;;5057782;28;20711;-72
2021/12/16 02:53:36;;;;;;;46.43;24.43;;;6.20;99.90;;;;;;5068051;28;20206;-71
2021/12/16 02:56:05;;;;;;;50.63;28.20;;;6.20;99.90;;;;;;5070479;28;20190;-71
2021/12/16 02:58:32;;;;;;;49.40;25.70;;;6.30;99.90;;;;;;5051512;28;20199;-71
2021/12/16 03:01:04;;;;;;;47.87;24.90;;;6.30;99.90;;;;;;5053214;28;20199;-71
2021/12/16 03:03:31;;;;;;;51.00;26.03;;;6.40;99.90;;;;;;5050825;28;20215;-72
2021/12/16 03:05:59;;;;;;;51.90;26.53;;;6.40;99.90;;;;;;5052174;28;20271;-72
2021/12/16 03:08:28;;;;;;;50.10;26.03;;;6.40;99.90;;;;;;5051817;28;20717;-72
2021/12/16 03:11:17;;;;;;;47.17;26.27;;;6.40;99.90;;;;;;5057213;28;20572;-71
2021/12/16 03:13:59;;;;;;;46.77;25.73;;;6.50;99.90;;;;;;5066491;28;20257;-71
2021/12/16 03:16:35;;;;;;;45.57;24.37;;;6.50;99.90;;;;;;5070748;28;20205;-72
2021/12/16 03:19:12;;;;;;;44.33;24.07;;;6.50;99.90;;;;;;5062371;28;20210;-72
2021/12/16 03:21:44;;;;;;;47.03;24.33;;;6.50;99.90;;;;;;5065247;28;20244;-72
2021/12/16 03:30:21;;;;;;;48.53;25.47;;;6.70;99.90;;;;;;5055564;28;20230;-72
2021/12/16 03:35:32;;;;;;;49.27;24.67;;;6.70;99.90;;;;;;5056213;28;20191;-72
2021/12/16 03:38:03;;;;;;;45.83;25.30;;;6.60;99.90;;;;;;5058554;28;20575;-72
2021/12/16 03:40:31;;;;;;;49.00;25.57;;;6.70;99.90;;;;;;5047365;28;20210;-71
2021/12/16 03:43:03;;;;;;;44.87;24.87;;;6.70;99.90;;;;;;5046589;28;20199;-71
2021/12/16 03:48:22;;;;;;;47.33;23.00;;;6.60;99.90;;;;;;5058493;28;20205;-72
2021/12/16 03:50:50;;;;;;;43.93;23.77;;;6.60;99.90;;;;;;5071091;28;20195;-71
2021/12/16 03:53:17;;;;;;;43.07;23.40;;;6.70;99.90;;;;;;5059483;28;20210;-71
2021/12/16 03:55:45;;;;;;;47.97;24.60;;;6.60;99.90;;;;;;5064884;28;20187;-71
2021/12/16 03:58:15;;;;;;;40.90;22.97;;;6.60;99.90;;;;;;5054959;28;20207;-71
2021/12/16 04:00:45;;;;;;;44.47;23.80;;;6.70;99.90;;;;;;5061191;28;20202;-71
2021/12/16 04:03:13;;;;;;;43.23;23.30;;;6.70;99.90;;;;;;5073844;28;20205;-72
2021/12/16 04:05:41;;;;;;;40.63;23.63;;;6.70;99.90;;;;;;5058510;28;20230;-72
2021/12/16 04:08:08;;;;;;;42.00;22.20;;;6.80;99.90;;;;;;5055092;28;20584;-72
2021/12/16 04:10:39;;;;;;;41.63;22.27;;;6.70;99.90;;;;;;5060226;28;20208;-72
2021/12/16 04:13:08;;;;;;;43.97;25.03;;;6.80;99.90;;;;;;5063792;28;20202;-71
2021/12/16 04:15:36;;;;;;;45.00;23.80;;;6.80;99.90;;;;;;5064593;28;20194;-71
2021/12/16 04:18:03;;;;;;;44.70;23.70;;;6.90;99.90;;;;;;5056101;28;20194;-71
2021/12/16 04:20:31;;;;;;;40.37;21.57;;;6.90;99.90;;;;;;5058091;28;20195;-72
2021/12/16 04:23:00;;;;;;;42.43;22.70;;;6.90;99.90;;;;;;5070409;28;20199;-72
2021/12/16 04:25:31;;;;;;;44.77;21.03;;;6.80;99.90;;;;;;5061661;28;20588;-72
2021/12/16 04:28:01;;;;;;;38.10;21.57;;;6.80;99.90;;;;;;5065670;28;20286;-72
2021/12/16 04:30:31;;;;;;;40.57;21.83;;;6.80;99.90;;;;;;5054880;28;20225;-72
2021/12/16 04:32:59;;;;;;;39.90;21.53;;;6.80;99.90;;;;;;5072981;28;20202;-72
2021/12/16 04:35:26;;;;;;;43.60;23.13;;;6.80;99.90;;;;;;5051385;28;20191;-71
2021/12/16 04:37:54;;;;;;;42.57;23.17;;;6.90;99.90;;;;;;5069821;28;20199;-71
2021/12/16 04:40:21;;;;;;;41.97;23.30;;;7.00;99.90;;;;;;5056622;28;20225;-72
2021/12/16 04:42:52;;;;;;;49.73;26.13;;;7.00;99.90;;;;;;5072013;28;20198;-71
2021/12/16 04:45:21;;;;;;;43.90;24.37;;;7.00;99.90;;;;;;5055372;28;20313;-71
2021/12/16 04:47:49;;;;;;;42.33;23.27;;;7.00;99.90;;;;;;5061796;28;20202;-71
2021/12/16 04:50:19;;;;;;;41.37;23.03;;;7.10;99.90;;;;;;5054413;28;20481;-72
2021/12/16 04:52:49;;;;;;;39.40;22.83;;;7.10;99.90;;;;;;5066650;28;20210;-71
2021/12/16 04:55:20;;;;;;;44.67;24.27;;;7.10;99.90;;;;;;5072081;28;20194;-68
2021/12/16 04:57:47;;;;;;;45.70;23.47;;;7.20;99.90;;;;;;5051693;28;20235;-71
2021/12/16 05:00:18;;;;;;;37.67;21.70;;;7.20;99.90;;;;;;5053541;28;20199;-72
2021/12/16 05:02:46;;;;;;;43.00;22.60;;;7.10;99.90;;;;;;5033298;28;20227;-72
2021/12/16 05:05:15;;;;;;;40.17;21.30;;;7.10;99.90;;;;;;5060728;28;20239;-74
2021/12/16 05:07:47;;;;;;;40.93;22.37;;;7.10;99.90;;;;;;5060300;28;20210;-67
2021/12/16 05:10:16;;;;;;;40.90;22.47;;;7.10;99.90;;;;;;5056757;28;20194;-68
2021/12/16 05:12:49;;;;;;;41.00;22.20;;;7.20;99.90;;;;;;5070676;28;20233;-67
2021/12/16 05:15:18;;;;;;;42.73;23.30;;;7.30;99.90;;;;;;5065509;28;20247;-66
2021/12/16 05:17:49;;;;;;;42.90;22.87;;;7.30;99.90;;;;;;5052299;28;20207;-66
2021/12/16 05:20:18;;;;;;;43.97;23.47;;;7.30;99.90;;;;;;5032665;28;20210;-66
2021/12/16 05:25:46;;;;;;;54.80;31.70;;;7.50;99.90;;;;;;5053309;28;20585;-66
2021/12/16 05:28:14;;;;;;;46.87;26.33;;;7.60;99.90;;;;;;5063736;28;20202;-67
2021/12/16 05:30:42;;;;;;;49.17;26.87;;;7.60;99.90;;;;;;5042410;28;20234;-66
2021/12/16 05:33:09;;;;;;;43.70;24.97;;;7.60;99.90;;;;;;5051663;28;20730;-71
2021/12/16 05:35:37;;;;;;;44.77;24.93;;;7.70;99.90;;;;;;5054545;28;20191;-71
2021/12/16 05:38:05;;;;;;;47.17;26.23;;;7.70;99.90;;;;;;5052617;28;20202;-71
2021/12/16 05:40:33;;;;;;;46.20;25.60;;;7.80;99.90;;;;;;5053897;28;20210;-71
2021/12/16 05:43:05;;;;;;;47.93;27.00;;;7.80;99.90;;;;;;5052834;28;20252;-72
2021/12/16 05:45:32;;;;;;;41.13;23.20;;;7.80;99.90;;;;;;5052850;28;20223;-72
2021/12/16 05:48:01;;;;;;;43.80;24.97;;;7.80;99.90;;;;;;5051365;28;20203;-72
2021/12/16 05:50:32;;;;;;;39.37;24.00;;;7.80;99.90;;;;;;5050037;28;20204;-66
2021/12/16 05:52:59;;;;;;;45.27;25.97;;;7.90;99.90;;;;;;5070654;28;20256;-66
2021/12/16 05:55:29;;;;;;;49.07;27.17;;;7.90;99.90;;;;;;5040640;28;20207;-67
2021/12/16 05:57:56;;;;;;;50.67;26.73;;;8.00;99.90;;;;;;5054204;28;20693;-73
2021/12/16 06:00:28;;;;;;;45.83;25.77;;;8.00;99.90;;;;;;5071372;28;20713;-73
2021/12/16 06:02:55;;;;;;;49.07;27.33;;;8.10;99.90;;;;;;5061132;28;20248;-67
2021/12/16 06:05:23;;;;;;;50.80;29.17;;;8.10;99.90;;;;;;5068946;28;20252;-67
2021/12/16 06:07:51;;;;;;;52.67;27.57;;;8.10;99.90;;;;;;5052036;28;20199;-67
2021/12/16 06:10:49;;;;;;;50.70;28.70;;;8.10;99.90;;;;;;5067205;28;20252;-66
2021/12/16 06:13:11;;;;;;;53.90;27.73;;;8.20;99.90;;;;;;5068121;28;20202;-71
2021/12/16 06:15:55;;;;;;;48.37;27.27;;;8.20;99.90;;;;;;5068429;28;20341;-72
2021/12/16 06:26:46;;;;;;;50.00;26.20;;;8.30;99.90;;;;;;5056620;28;20225;-71
2021/12/16 06:29:14;;;;;;;49.27;26.83;;;8.30;99.90;;;;;;5059550;28;20206;-71
2021/12/16 06:31:41;;;;;;;48.90;27.37;;;8.30;99.90;;;;;;5054858;28;20449;-71
2021/12/16 06:34:09;;;;;;;50.53;25.77;;;8.30;99.90;;;;;;5067538;28;20203;-72
2021/12/16 06:36:36;;;;;;;49.47;25.93;;;8.30;99.90;;;;;;5052353;28;20252;-73
2021/12/16 06:39:04;;;;;;;46.70;25.27;;;8.30;99.90;;;;;;5059813;28;20206;-74
2021/12/16 06:41:34;;;;;;;49.07;25.60;;;8.30;99.90;;;;;;5070374;28;20659;-72
2021/12/16 06:44:06;;;;;;;48.70;26.40;;;8.40;99.90;;;;;;5049040;28;20211;-73
2021/12/16 06:46:39;;;;;;;45.67;26.13;;;8.40;99.90;;;;;;5050766;28;20684;-73
2021/12/16 06:49:07;;;;;;;48.63;25.33;;;8.40;99.90;;;;;;5041896;28;20614;-74
2021/12/16 06:51:40;;;;;;;47.03;24.73;;;8.40;99.90;;;;;;5050758;28;20207;-73
2021/12/16 06:54:11;;;;;;;44.47;25.57;;;8.30;99.90;;;;;;5048232;28;20306;-73
2021/12/16 06:56:47;;;;;;;44.47;25.10;;;8.30;99.90;;;;;;5050820;28;20206;-73
2021/12/16 06:59:22;;;;;;;49.00;26.00;;;8.30;99.90;;;;;;5048401;28;20284;-73
2021/12/16 07:02:04;;;;;;;43.10;24.07;;;8.30;99.90;;;;;;5049939;28;20206;-73
2021/12/16 07:04:32;;;;;;;46.33;24.87;;;8.30;99.90;;;;;;5048969;28;20207;-73
2021/12/16 07:07:01;;;;;;;43.10;23.77;;;8.30;99.90;;;;;;5047178;28;20266;-73
2021/12/16 07:09:28;;;;;;;42.37;23.93;;;8.30;99.90;;;;;;5050239;28;20203;-73
2021/12/16 07:11:58;;;;;;;46.07;23.27;;;8.30;99.90;;;;;;5045764;28;20204;-73
2021/12/16 07:14:35;;;;;;;43.20;23.53;;;8.30;99.90;;;;;;5050121;28;20292;-74
2021/12/16 07:17:06;;;;;;;41.40;22.00;;;8.30;99.90;;;;;;5051167;28;20246;-67
2021/12/16 07:19:33;;;;;;;47.30;23.40;;;8.30;99.90;;;;;;5050483;28;20232;-67
2021/12/16 07:22:01;;;;;;;40.40;22.37;;;8.30;99.90;;;;;;5048048;28;20195;-67
2021/12/16 07:24:28;;;;;;;40.57;22.20;;;8.30;99.90;;;;;;5048122;28;20199;-66
2021/12/16 07:26:55;;;;;;;39.77;22.37;;;8.30;99.90;;;;;;5044590;28;20277;-67
2021/12/16 07:29:23;;;;;;;38.17;21.30;;;8.30;99.90;;;;;;5047693;28;20199;-67
2021/12/16 07:31:50;;;;;;;42.07;22.87;;;8.30;99.90;;;;;;5049791;28;20214;-67
2021/12/16 07:34:19;;;;;;;40.07;22.27;;;8.30;99.90;;;;;;5050384;28;20253;-67
2021/12/16 07:36:46;;;;;;;38.30;21.63;;;8.30;99.90;;;;;;5049175;28;20250;-67
2021/12/16 07:39:15;;;;;;;41.10;22.93;;;8.30;99.90;;;;;;5050365;28;20203;-67
2021/12/16 07:41:46;;;;;;;37.77;21.77;;;8.30;99.90;;;;;;5047272;28;20714;-67
2021/12/16 07:44:15;;;;;;;42.67;22.00;;;8.30;99.90;;;;;;5050374;28;20302;-67
2021/12/16 07:46:45;;;;;;;41.00;21.80;;;8.30;99.90;;;;;;5045336;28;20219;-67
2021/12/16 07:49:15;;;;;;;38.47;20.87;;;8.30;99.90;;;;;;5050276;28;20597;-67
2021/12/16 07:51:44;;;;;;;40.73;21.90;;;8.40;99.90;;;;;;5049916;28;20551;-67
2021/12/16 07:54:14;;;;;;;38.90;21.13;;;8.50;99.90;;;;;;5047945;28;20207;-67
2021/12/16 07:56:42;;;;;;;43.10;22.27;;;8.50;99.90;;;;;;5046788;28;20210;-67
2021/12/16 07:59:09;;;;;;;40.57;21.77;;;8.50;99.90;;;;;;5050259;28;20234;-76
2021/12/16 08:01:37;;;;;;;36.90;21.03;;;8.50;99.90;;;;;;5053433;28;20267;-66
2021/12/16 08:04:05;;;;;;;37.83;20.60;;;8.50;99.90;;;;;;5053225;28;20238;-67
2021/12/16 08:06:33;;;;;;;37.37;20.17;;;8.60;99.90;;;;;;5054089;28;20590;-67
2021/12/16 08:09:07;;;;;;;41.70;22.80;;;8.60;99.90;;;;;;5034374;28;20250;-67
2021/12/16 08:11:36;;;;;;;39.33;19.93;;;8.60;99.90;;;;;;5061958;28;20248;-66
2021/12/16 08:14:04;;;;;;;37.87;21.20;;;8.70;99.90;;;;;;5064743;28;20203;-66
2021/12/16 08:16:31;;;;;;;37.13;19.73;;;8.60;99.90;;;;;;5054213;28;20203;-66
2021/12/16 08:18:59;;;;;;;34.80;19.83;;;8.60;99.90;;;;;;5055145;28;20207;-66
2021/12/16 08:21:29;;;;;;;36.20;18.90;;;8.70;99.90;;;;;;5054376;28;20257;-66
2021/12/16 08:23:56;;;;;;;34.33;18.87;;;8.70;99.90;;;;;;5053146;28;20203;-66
2021/12/16 08:26:25;;;;;;;34.90;19.73;;;8.70;99.90;;;;;;5053113;28;20223;-66
2021/12/16 08:28:52;;;;;;;34.63;20.67;;;8.70;99.90;;;;;;5064739;28;20247;-66
2021/12/16 08:31:20;;;;;;;34.60;19.13;;;8.80;99.90;;;;;;5054410;28;20679;-66
2021/12/16 08:33:48;;;;;;;36.80;19.40;;;8.80;99.90;;;;;;5053414;28;20203;-66
2021/12/16 08:36:16;;;;;;;37.70;19.33;;;8.80;99.90;;;;;;5054196;28;20252;-66
2021/12/16 08:38:44;;;;;;;37.87;20.03;;;8.90;99.90;;;;;;5070231;28;20640;-66
2021/12/16 08:41:15;;;;;;;35.63;21.33;;;8.90;99.90;;;;;;5060974;28;20203;-66
2021/12/16 08:43:44;;;;;;;39.97;21.33;;;8.90;99.90;;;;;;5052275;28;20207;-66
2021/12/16 08:46:13;;;;;;;36.90;20.77;;;8.90;99.90;;;;;;5053923;28;20620;-66
2021/12/16 08:48:42;;;;;;;35.67;20.10;;;9.00;99.90;;;;;;5052440;28;20198;-66
2021/12/16 08:51:10;;;;;;;37.70;21.03;;;9.00;99.90;;;;;;5053102;28;20199;-66
2021/12/16 08:53:37;;;;;;;35.80;19.37;;;9.10;99.90;;;;;;5053354;28;20242;-66
2021/12/16 08:56:06;;;;;;;38.00;21.17;;;9.10;99.90;;;;;;5051477;28;20664;-66
2021/12/16 08:58:37;;;;;;;37.43;20.80;;;9.10;99.90;;;;;;5053198;28;20215;-66
2021/12/16 09:01:13;;;;;;;39.83;20.73;;;9.20;99.90;;;;;;5052160;28;20211;-66
2021/12/16 09:03:41;;;;;;;35.43;20.50;;;9.20;99.90;;;;;;5051805;28;20198;-66
2021/12/16 09:06:08;;;;;;;37.87;21.83;;;9.20;99.90;;;;;;5053603;28;20206;-66
2021/12/16 09:08:35;;;;;;;40.87;21.50;;;9.20;99.90;;;;;;5052834;28;20686;-66
2021/12/16 09:11:06;;;;;;;34.57;19.97;;;9.20;99.90;;;;;;5050944;28;20207;-66
2021/12/16 09:13:35;;;;;;;36.50;21.43;;;9.20;99.90;;;;;;5052456;28;20211;-66
2021/12/16 09:16:07;;;;;;;39.07;20.97;;;9.20;99.90;;;;;;5053142;28;20573;-66
2021/12/16 09:18:41;;;;;;;38.73;21.10;;;9.20;99.90;;;;;;5052897;28;20198;-66
2021/12/16 09:21:10;;;;;;;34.93;19.87;;;9.20;99.90;;;;;;5053071;28;20238;-66
2021/12/16 09:23:38;;;;;;;35.27;20.13;;;9.20;99.90;;;;;;5053238;28;20657;-66
2021/12/16 09:26:06;;;;;;;37.27;20.17;;;9.20;99.90;;;;;;5052118;28;20649;-66
2021/12/16 09:28:33;;;;;;;36.37;20.47;;;9.20;99.90;;;;;;5053063;28;20199;-66
2021/12/16 09:31:01;;;;;;;35.57;20.80;;;9.20;99.90;;;;;;5051089;28;20249;-67
2021/12/16 09:33:29;;;;;;;36.67;21.67;;;9.20;99.90;;;;;;5052762;28;20264;-66
2021/12/16 09:35:59;;;;;;;36.70;21.27;;;9.20;99.90;;;;;;5052615;28;20264;-66
2021/12/16 09:38:28;;;;;;;36.13;20.33;;;9.20;99.90;;;;;;5052481;28;20203;-66
2021/12/16 09:40:57;;;;;;;35.67;21.90;;;9.30;99.90;;;;;;5052537;28;20261;-66
2021/12/16 09:43:28;;;;;;;37.37;21.93;;;9.30;99.90;;;;;;5051414;28;20573;-66
2021/12/16 09:45:58;;;;;;;35.73;22.13;;;9.30;99.90;;;;;;5051242;28;20456;-66
2021/12/16 09:48:25;;;;;;;36.20;21.03;;;9.30;99.90;;;;;;5051467;28;20702;-66
2021/12/16 09:50:55;;;;;;;36.63;21.13;;;9.30;99.90;;;;;;5052701;28;20199;-66
2021/12/16 09:53:22;;;;;;;38.90;21.13;;;9.30;99.90;;;;;;5051215;28;20242;-66
2021/12/16 09:55:57;;;;;;;38.93;22.43;;;9.30;99.90;;;;;;5052540;28;20249;-66
2021/12/16 09:58:25;;;;;;;39.93;23.30;;;9.30;99.90;;;;;;5051283;28;20211;-66
2021/12/16 10:00:53;;;;;;;42.97;25.23;;;9.40;99.90;;;;;;5051103;28;20610;-66
2021/12/16 10:03:21;;;;;;;43.97;25.07;;;9.30;99.90;;;;;;5050353;28;20245;-66
2021/12/16 10:05:48;;;;;;;49.10;26.90;;;9.30;99.90;;;;;;5052734;28;20261;-66
2021/12/16 10:08:17;;;;;;;44.47;25.60;;;9.30;99.90;;;;;;5051438;28;20750;-66
2021/12/16 10:10:44;;;;;;;51.00;28.37;;;9.40;99.90;;;;;;5052068;28;20734;-66
2021/12/16 10:13:14;;;;;;;51.00;27.87;;;9.40;99.90;;;;;;5050772;28;20222;-66
2021/12/16 10:18:26;;;;;;;48.60;26.17;;;9.30;99.90;;;;;;5050907;28;20564;-66
2021/12/16 10:20:57;;;;;;;47.93;27.40;;;9.40;99.90;;;;;;5051058;28;20284;-66
2021/12/16 10:23:28;;;;;;;52.07;28.50;;;9.50;99.90;;;;;;5051833;28;20214;-66
2021/12/16 10:25:57;;;;;;;52.60;29.13;;;9.40;99.90;;;;;;5051199;28;20544;-66
2021/12/16 10:28:27;;;;;;;51.60;27.80;;;9.40;99.90;;;;;;5051722;28;20231;-66
2021/12/16 10:31:00;;;;;;;52.83;27.23;;;9.40;99.90;;;;;;5052042;28;20260;-66
2021/12/16 10:33:33;;;;;;;50.33;27.97;;;9.40;99.90;;;;;;5050363;28;20207;-66
2021/12/16 10:36:12;;;;;;;47.23;27.93;;;9.40;99.90;;;;;;5051826;28;20207;-66
2021/12/16 10:38:44;;;;;;;46.23;25.23;;;9.30;99.90;;;;;;5051399;28;20206;-66
2021/12/16 10:41:13;;;;;;;51.63;27.53;;;9.30;99.90;;;;;;5051539;28;20234;-66
2021/12/16 10:43:42;;;;;;;48.00;27.60;;;9.30;99.90;;;;;;5050697;28;20217;-73
2021/12/16 10:46:12;;;;;;;46.07;27.77;;;9.30;99.90;;;;;;5050795;28;20723;-73
2021/12/16 10:48:42;;;;;;;46.63;27.33;;;9.30;99.90;;;;;;5051200;28;20234;-73
2021/12/16 10:51:19;;;;;;;47.60;28.40;;;9.30;99.90;;;;;;5051383;28;20253;-73
2021/12/16 10:54:24;;;;;;;48.33;26.70;;;9.30;99.90;;;;;;5050806;28;20218;-73
2021/12/16 10:56:56;;;;;;;51.70;27.67;;;9.30;99.90;;;;;;5050019;28;20211;-73
2021/12/16 10:59:27;;;;;;;45.30;26.50;;;9.40;99.90;;;;;;5051246;28;20210;-73
2021/12/16 11:02:02;;;;;;;46.23;27.00;;;9.30;99.90;;;;;;5051192;28;20199;-73
2021/12/16 11:04:33;;;;;;;43.43;26.57;;;9.30;99.90;;;;;;5051345;28;20198;-73
2021/12/16 11:07:05;;;;;;;50.10;26.77;;;9.30;99.90;;;;;;5051060;28;20724;-73
2021/12/16 11:09:58;;;;;;;46.37;26.63;;;9.30;99.90;;;;;;5050894;28;20206;-73
2021/12/16 11:12:31;;;;;;;44.17;26.90;;;9.30;99.90;;;;;;5050711;28;20203;-73
2021/12/16 11:15:01;;;;;;;45.20;25.00;;;9.40;99.90;;;;;;5051156;28;20603;-74
2021/12/16 11:17:33;;;;;;;42.43;26.30;;;9.50;99.90;;;;;;5050687;28;20222;-74
2021/12/16 11:20:04;;;;;;;46.10;26.00;;;9.50;99.90;;;;;;5051246;28;20203;-73
2021/12/16 11:22:34;;;;;;;45.57;26.63;;;9.50;99.90;;;;;;5050676;28;20207;-73
2021/12/16 11:25:17;;;;;;;47.60;27.00;;;9.60;99.90;;;;;;5051110;28;20211;-73
2021/12/16 11:27:47;;;;;;;44.13;24.67;;;9.60;99.90;;;;;;5050291;28;20215;-73
2021/12/16 11:30:45;;;;;;;47.63;25.97;;;9.60;99.90;;;;;;5051133;28;20249;-73
2021/12/16 11:33:19;;;;;;;45.00;26.77;;;9.60;99.90;;;;;;5052995;28;20211;-73
2021/12/16 11:35:51;;;;;;;45.47;26.30;;;9.60;99.90;;;;;;5054880;28;20238;-74
2021/12/16 11:38:22;;;;;;;43.10;23.93;;;9.60;99.90;;;;;;5049014;28;20199;-73
2021/12/16 11:41:26;;;;;;;44.83;25.97;;;9.60;99.90;;;;;;5054880;28;20238;-73
2021/12/16 11:44:05;;;;;;;47.13;26.43;;;9.60;99.90;;;;;;5053957;28;20340;-73
2021/12/16 11:46:39;;;;;;;40.97;23.13;;;9.60;99.90;;;;;;5054077;28;20203;-73
2021/12/16 11:49:13;;;;;;;42.20;23.57;;;9.60;99.90;;;;;;5054378;28;20316;-73
2021/12/16 11:51:43;;;;;;;40.17;22.60;;;9.60;99.90;;;;;;5054291;28;20202;-73
2021/12/16 11:54:18;;;;;;;40.37;22.20;;;9.60;99.90;;;;;;5054200;28;20212;-73
2021/12/16 11:56:53;;;;;;;38.90;21.47;;;9.70;99.90;;;;;;5053434;28;20271;-73
2021/12/16 11:59:26;;;;;;;38.00;21.67;;;9.70;99.90;;;;;;5054739;28;20289;-73
2021/12/16 12:01:54;;;;;;;37.67;20.30;;;9.60;99.90;;;;;;5054267;28;20199;-73
2021/12/16 12:04:28;;;;;;;35.03;19.50;;;9.60;99.90;;;;;;5054185;28;20211;-73
2021/12/16 12:06:55;;;;;;;39.00;20.00;;;9.70;99.90;;;;;;5054383;28;20206;-73
2021/12/16 12:09:35;;;;;;;34.50;19.27;;;9.70;99.90;;;;;;5054475;28;20661;-73
2021/12/16 12:12:04;;;;;;;31.43;18.73;;;9.70;99.90;;;;;;5053957;28;20203;-73
2021/12/16 12:14:37;;;;;;;31.83;18.30;;;9.70;99.90;;;;;;5054348;28;20260;-73
2021/12/16 12:17:08;;;;;;;30.33;17.43;;;9.70;99.90;;;;;;5054364;28;20199;-73
2021/12/16 12:19:42;;;;;;;27.17;14.93;;;9.60;99.90;;;;;;5053526;28;20203;-73
2021/12/16 12:22:09;;;;;;;25.70;14.07;;;9.60;99.90;;;;;;5051932;28;20261;-73
2021/12/16 12:24:40;;;;;;;28.60;15.80;;;9.60;99.90;;;;;;5054167;28;20649;-73
2021/12/16 12:27:12;;;;;;;27.70;14.80;;;9.70;99.90;;;;;;5053021;28;20211;-73
2021/12/16 12:29:42;;;;;;;26.13;13.63;;;9.70;99.90;;;;;;5053917;28;20252;-73
2021/12/16 12:32:12;;;;;;;26.20;13.80;;;9.70;99.90;;;;;;5053799;28;20210;-73
2021/12/16 12:34:41;;;;;;;24.63;14.17;;;9.70;99.90;;;;;;5053683;28;20199;-73
2021/12/16 12:37:11;;;;;;;24.40;13.90;;;9.70;99.90;;;;;;5053649;28;20199;-73
2021/12/16 12:39:42;;;;;;;28.67;15.67;;;9.70;99.90;;;;;;5053653;28;20645;-73
2021/12/16 12:42:13;;;;;;;27.67;14.67;;;9.70;99.90;;;;;;5053472;28;20207;-73
2021/12/16 12:44:41;;;;;;;25.53;14.37;;;9.70;99.90;;;;;;5052209;28;20242;-73
2021/12/16 12:47:11;;;;;;;23.70;13.23;;;9.70;99.90;;;;;;5054015;28;20550;-73
2021/12/16 12:49:39;;;;;;;24.97;13.83;;;9.70;99.90;;;;;;5053826;28;20641;-73
2021/12/16 12:52:10;;;;;;;23.60;13.63;;;9.70;99.90;;;;;;5052456;28;20207;-73
2021/12/16 12:54:39;;;;;;;26.10;14.33;;;9.70;99.90;;;;;;5052736;28;20675;-73
2021/12/16 12:57:22;;;;;;;26.07;14.67;;;9.70;99.90;;;;;;5052670;28;20246;-73
2021/12/16 12:59:50;;;;;;;26.40;14.70;;;9.70;99.90;;;;;;5052239;28;20203;-73
2021/12/16 13:02:19;;;;;;;23.87;12.80;;;9.70;99.90;;;;;;5048092;28;20340;-73
2021/12/16 13:04:51;;;;;;;25.90;13.83;;;9.70;99.90;;;;;;5049102;28;20211;-73
2021/12/16 13:07:19;;;;;;;23.17;12.77;;;9.70;99.90;;;;;;5052671;28;20199;-73
2021/12/16 13:09:48;;;;;;;26.23;13.90;;;9.70;99.90;;;;;;5048497;28;20207;-73
2021/12/16 13:12:38;;;;;;;22.90;12.57;;;9.70;99.90;;;;;;5051530;28;20564;-73
2021/12/16 13:15:45;;;;;;;26.47;13.77;;;9.70;99.90;;;;;;5045165;28;20270;-74
2021/12/16 13:24:17;;;;;;;24.93;13.30;;;9.70;99.90;;;;;;5043843;28;20210;-73
2021/12/16 13:26:50;;;;;;;22.53;13.03;;;9.70;99.90;;;;;;5049768;28;20241;-73
2021/12/16 13:29:35;;;;;;;25.30;14.27;;;9.70;99.90;;;;;;5048818;28;20237;-73
2021/12/16 13:32:10;;;;;;;24.50;13.43;;;9.70;99.90;;;;;;5052173;28;20651;-73
2021/12/16 13:34:49;;;;;;;23.00;12.80;;;9.70;99.90;;;;;;5050656;28;20206;-73
2021/12/16 13:37:24;;;;;;;24.90;13.13;;;9.70;99.90;;;;;;5051601;28;20209;-73
2021/12/16 13:39:56;;;;;;;27.13;14.30;;;9.70;99.90;;;;;;5049307;28;20229;-73
2021/12/16 13:42:23;;;;;;;25.97;14.13;;;9.70;99.90;;;;;;5051449;28;20213;-73
2021/12/16 13:45:00;;;;;;;24.07;13.67;;;9.70;99.90;;;;;;5050851;28;20206;-73
2021/12/16 13:47:42;;;;;;;23.40;13.63;;;9.70;99.90;;;;;;5054440;28;20601;-73
2021/12/16 14:05:46;;;;;;;26.57;14.07;;;9.70;99.90;;;;;;5033933;28;20707;-73
2021/12/16 14:08:29;;;;;;;27.33;14.73;;;9.60;99.90;;;;;;5052498;28;20596;-73
2021/12/16 14:10:59;;;;;;;25.50;14.33;;;9.70;99.90;;;;;;5048015;28;20261;-66
2021/12/16 14:16:39;;;;;;;27.93;15.60;;;9.60;99.90;;;;;;5050283;28;20675;-66
2021/12/16 14:39:40;;;;;;;23.67;12.50;;;9.50;99.90;;;;;;5050933;28;20210;-66
2021/12/16 14:42:21;;;;;;;23.57;13.33;;;9.50;99.90;;;;;;5050964;28;20203;-66
2021/12/16 14:45:16;;;;;;;24.97;13.73;;;9.50;99.90;;;;;;5044824;28;20577;-66
2021/12/16 14:50:41;;;;;;;23.33;12.33;;;9.50;99.90;;;;;;5047568;28;20296;-67
2021/12/16 14:53:30;;;;;;;22.40;12.33;;;9.50;99.90;;;;;;5045597;28;20211;-66
2021/12/16 14:56:01;;;;;;;24.23;12.20;;;9.50;99.90;;;;;;5052658;28;20203;-68
2021/12/16 14:58:28;;;;;;;20.67;11.50;;;9.50;99.90;;;;;;5047350;28;20657;-68
2021/12/16 15:00:59;;;;;;;23.70;11.50;;;9.50;99.90;;;;;;5048494;28;20203;-66
2021/12/16 15:03:30;;;;;;;24.13;12.63;;;9.50;99.90;;;;;;5047243;28;20202;-66
2021/12/16 15:05:59;;;;;;;23.27;11.67;;;9.50;99.90;;;;;;5055397;28;20296;-66
2021/12/16 15:08:35;;;;;;;23.30;12.03;;;9.50;99.90;;;;;;5062824;28;20301;-66
2021/12/16 15:11:05;;;;;;;20.83;11.23;;;9.50;99.90;;;;;;5044685;28;20564;-66
2021/12/16 15:13:37;;;;;;;24.03;11.27;;;9.50;99.90;;;;;;5051001;28;20230;-67
2021/12/16 15:16:27;;;;;;;25.13;13.13;;;9.50;99.90;;;;;;5054852;28;20570;-66
2021/12/16 15:44:08;;;;;;;23.73;12.27;;;9.30;99.90;;;;;;5027717;28;20214;-66
2021/12/16 15:46:36;;;;;;;22.03;12.13;;;9.40;99.90;;;;;;5043221;28;20202;-67
2021/12/16 15:49:04;;;;;;;23.43;12.23;;;9.40;99.90;;;;;;5075165;28;20578;-66
2021/12/16 15:51:32;;;;;;;19.57;10.83;;;9.40;99.90;;;;;;5069774;28;20199;-66
2021/12/16 15:54:00;;;;;;;18.93;11.17;;;9.30;99.90;;;;;;5055219;28;20207;-66
2021/12/16 15:56:32;;;;;;;19.27;10.40;;;9.30;99.90;;;;;;5056977;28;20289;-66
2021/12/16 15:59:01;;;;;;;19.80;10.43;;;9.30;99.90;;;;;;5072525;28;20199;-67
2021/12/16 16:01:31;;;;;;;20.57;9.57;;;9.30;99.90;;;;;;5057419;28;20203;-66
2021/12/16 16:03:59;;;;;;;17.97;10.17;;;9.20;99.90;;;;;;5074077;28;20252;-67
2021/12/16 16:06:27;;;;;;;17.83;9.87;;;9.20;99.90;;;;;;5073270;28;20194;-66
2021/12/16 16:08:57;;;;;;;19.47;9.93;;;9.20;99.90;;;;;;5054059;28;20695;-66
2021/12/16 16:11:29;;;;;;;18.80;10.60;;;9.20;99.90;;;;;;5053964;28;20203;-67